Time;durP1;ratioP1;P1;durP2;ratioP2;P2;SDS_P1;SDS_P2;PMS_P1;PMS_P2;Temp;Humidity;BMP_temperature;BMP_pressure;BME280_temperature;BME280_humidity;BME280_pressure;Samples;Min_cycle;Max_cycle;Signal;HPM_P1;HPM_P2
2021/03/05 00:00:23;;;;;;;3.08;0.80;;;31.60;39.20;;;;;;5002057;28;20026;-68
2021/03/05 00:02:52;;;;;;;3.95;0.65;;;31.60;39.30;;;;;;5000473;28;20120;-67
2021/03/05 00:05:19;;;;;;;1.38;0.40;;;31.70;38.70;;;;;;4999771;28;20544;-67
2021/03/05 00:07:47;;;;;;;1.60;0.60;;;31.80;39.50;;;;;;4998573;28;20141;-68
2021/03/05 00:10:17;;;;;;;3.90;0.47;;;31.60;39.20;;;;;;4998751;28;20564;-68
2021/03/05 00:12:45;;;;;;;3.10;0.82;;;30.80;40.00;;;;;;5002730;28;20033;-68
2021/03/05 00:15:14;;;;;;;2.65;0.43;;;30.50;40.40;;;;;;5001025;28;20123;-67
2021/03/05 00:17:42;;;;;;;1.40;0.57;;;30.60;40.70;;;;;;4998260;28;20068;-66
2021/03/05 00:20:14;;;;;;;1.02;0.60;;;30.90;41.30;;;;;;5000285;28;20548;-69
2021/03/05 00:22:43;;;;;;;2.03;0.55;;;30.90;41.70;;;;;;5001246;28;20034;-67
2021/03/05 00:25:11;;;;;;;2.35;0.90;;;31.30;40.90;;;;;;5000437;28;20030;-67
2021/03/05 00:27:39;;;;;;;3.53;0.50;;;31.60;39.70;;;;;;4996378;28;20524;-67
2021/03/05 00:30:08;;;;;;;1.10;0.50;;;31.90;40.90;;;;;;5000596;28;20038;-67
2021/03/05 00:32:36;;;;;;;5.32;0.80;;;31.90;40.00;;;;;;5001620;28;20033;-67
2021/03/05 00:35:10;;;;;;;0.98;0.45;;;31.60;39.30;;;;;;5001830;28;20022;-67
2021/03/05 00:37:38;;;;;;;2.90;0.40;;;31.80;40.00;;;;;;4997771;28;20880;-66
2021/03/05 00:40:08;;;;;;;13.60;3.33;;;32.20;38.60;;;;;;5000385;28;20034;-65
2021/03/05 00:42:35;;;;;;;17.13;4.95;;;31.60;40.00;;;;;;5001878;28;20752;-67
2021/03/05 00:45:04;;;;;;;14.90;3.63;;;30.20;43.50;;;;;;5001583;28;21241;-66
2021/03/05 00:47:32;;;;;;;12.25;2.63;;;29.10;46.80;;;;;;4998012;28;20033;-67
2021/03/05 00:49:59;;;;;;;8.43;2.22;;;28.50;48.70;;;;;;5001704;28;20034;-66
2021/03/05 00:52:27;;;;;;;11.60;3.05;;;27.90;50.40;;;;;;5001265;28;20030;-66
2021/03/05 00:54:55;;;;;;;6.75;2.35;;;28.20;51.30;;;;;;5002072;28;20500;-69
2021/03/05 00:57:23;;;;;;;9.60;2.70;;;28.30;51.00;;;;;;4998115;28;20038;-67
2021/03/05 00:59:50;;;;;;;11.98;2.70;;;28.90;49.80;;;;;;5005373;28;20076;-67
2021/03/05 01:02:19;;;;;;;11.07;2.40;;;29.30;49.20;;;;;;5004395;28;20108;-67
2021/03/05 01:04:46;;;;;;;10.10;2.20;;;29.10;49.40;;;;;;5004805;28;20593;-67
2021/03/05 01:07:14;;;;;;;10.93;2.17;;;28.40;49.80;;;;;;5000787;28;20037;-69
2021/03/05 01:09:41;;;;;;;10.25;3.58;;;27.70;50.40;;;;;;5004889;28;20125;-68
2021/03/05 01:12:09;;;;;;;17.52;3.65;;;27.20;52.00;;;;;;5004049;28;20117;-67
2021/03/05 01:14:37;;;;;;;12.52;2.95;;;26.90;52.10;;;;;;5005649;28;20096;-67
2021/03/05 01:17:05;;;;;;;13.07;3.13;;;26.60;53.50;;;;;;5000312;28;20036;-67
2021/03/05 01:19:33;;;;;;;11.85;2.72;;;26.80;53.40;;;;;;5004016;28;20321;-66
2021/03/05 01:22:00;;;;;;;7.85;2.47;;;27.70;51.80;;;;;;5004031;28;20029;-66
2021/03/05 01:24:28;;;;;;;9.70;1.77;;;28.20;50.00;;;;;;5004143;28;20030;-67
2021/03/05 01:26:55;;;;;;;12.15;2.65;;;28.50;50.50;;;;;;5000934;28;20392;-68
2021/03/05 01:29:23;;;;;;;10.90;2.75;;;28.80;49.30;;;;;;5001825;28;20116;-68
2021/03/05 01:31:50;;;;;;;13.45;2.75;;;28.20;48.90;;;;;;5005174;28;20026;-68
2021/03/05 01:34:19;;;;;;;12.48;2.58;;;27.60;49.70;;;;;;5005385;28;20095;-67
2021/03/05 01:36:46;;;;;;;16.25;3.42;;;27.20;50.90;;;;;;5001246;28;20095;-69
2021/03/05 01:39:14;;;;;;;12.07;2.90;;;27.10;51.00;;;;;;5003826;28;20905;-70
2021/03/05 01:41:41;;;;;;;15.27;3.70;;;27.90;49.60;;;;;;5003192;28;20121;-70
2021/03/05 01:44:11;;;;;;;16.33;3.47;;;28.20;48.90;;;;;;5004497;28;20133;-69
2021/03/05 01:46:39;;;;;;;12.50;3.63;;;28.60;47.60;;;;;;5002078;28;20030;-67
2021/03/05 01:49:07;;;;;;;13.93;2.80;;;28.70;48.40;;;;;;5002429;28;20742;-66
2021/03/05 01:51:38;;;;;;;10.85;2.97;;;29.10;47.10;;;;;;5003630;28;20034;-68
2021/03/05 01:54:07;;;;;;;13.20;2.05;;;29.20;45.40;;;;;;5002329;28;20052;-68
2021/03/05 01:56:48;;;;;;;8.95;2.45;;;28.70;45.20;;;;;;5001559;28;20416;-68
2021/03/05 01:59:20;;;;;;;7.38;2.15;;;28.90;46.40;;;;;;5003229;28;20527;-67
2021/03/05 02:01:48;;;;;;;11.18;2.22;;;29.10;46.20;;;;;;5003250;28;20038;-66
2021/03/05 02:04:15;;;;;;;9.43;2.20;;;29.10;45.10;;;;;;5001694;28;20042;-67
2021/03/05 02:06:43;;;;;;;6.45;1.55;;;29.00;45.20;;;;;;4999705;28;20030;-70
2021/03/05 02:09:11;;;;;;;10.32;2.50;;;29.20;45.40;;;;;;5002030;28;20065;-69
2021/03/05 02:11:38;;;;;;;6.80;1.95;;;29.70;44.90;;;;;;5002434;28;20041;-70
2021/03/05 02:14:09;;;;;;;7.47;2.13;;;30.10;43.70;;;;;;5003025;28;20030;-68
2021/03/05 02:16:42;;;;;;;12.80;2.45;;;29.70;43.80;;;;;;5001637;28;20034;-68
2021/03/05 02:19:34;;;;;;;16.25;2.40;;;28.80;44.30;;;;;;5000100;28;20065;-67
2021/03/05 02:22:22;;;;;;;14.35;3.35;;;28.10;46.40;;;;;;5003986;28;20461;-66
2021/03/05 02:24:55;;;;;;;8.85;2.15;;;28.10;46.90;;;;;;5004638;28;20026;-69
2021/03/05 02:27:52;;;;;;;9.32;2.50;;;28.70;45.10;;;;;;4998919;28;20030;-65
2021/03/05 02:30:34;;;;;;;9.07;2.83;;;28.10;46.20;;;;;;5001393;28;20056;-65
2021/03/05 02:33:13;;;;;;;10.25;2.13;;;28.20;45.90;;;;;;5002438;28;20022;-70
2021/03/05 02:35:43;;;;;;;13.02;2.75;;;29.20;44.60;;;;;;5003226;28;20033;-68
2021/03/05 02:38:13;;;;;;;11.20;2.78;;;29.20;43.30;;;;;;4999320;28;20095;-68
2021/03/05 02:40:48;;;;;;;10.10;2.38;;;28.90;44.40;;;;;;5003589;28;20017;-70
2021/03/05 02:43:19;;;;;;;11.68;3.15;;;28.50;45.00;;;;;;5002789;28;20082;-67
2021/03/05 02:46:00;;;;;;;8.30;2.53;;;27.90;45.50;;;;;;5002266;28;20038;-67
2021/03/05 02:48:45;;;;;;;14.82;2.47;;;27.40;47.50;;;;;;5001382;28;20475;-66
2021/03/05 02:51:14;;;;;;;10.77;2.67;;;28.00;45.90;;;;;;5003247;28;20038;-68
2021/03/05 02:53:44;;;;;;;11.82;3.15;;;28.70;44.40;;;;;;5001455;28;20040;-67
2021/03/05 02:56:18;;;;;;;14.10;2.67;;;29.30;43.60;;;;;;5001033;28;20072;-67
2021/03/05 02:58:51;;;;;;;10.40;2.35;;;29.60;42.90;;;;;;5001861;28;20076;-72
2021/03/05 03:01:22;;;;;;;9.32;1.95;;;29.40;42.70;;;;;;5003323;28;20049;-67
2021/03/05 03:03:51;;;;;;;10.05;2.33;;;28.80;43.50;;;;;;5004474;28;20038;-68
2021/03/05 03:06:18;;;;;;;9.00;1.90;;;28.20;44.20;;;;;;5000650;28;20488;-69
2021/03/05 03:08:47;;;;;;;11.13;2.47;;;27.70;45.10;;;;;;4999381;28;20038;-67
2021/03/05 03:11:15;;;;;;;9.88;2.83;;;27.50;45.70;;;;;;5003086;28;20502;-71
2021/03/05 03:13:43;;;;;;;13.25;3.35;;;27.60;45.20;;;;;;5003341;28;20057;-70
2021/03/05 03:16:10;;;;;;;10.75;3.20;;;28.20;44.80;;;;;;5000828;28;20034;-67
2021/03/05 03:18:41;;;;;;;8.82;3.33;;;28.40;44.20;;;;;;4998500;28;20094;-69
2021/03/05 03:21:09;;;;;;;8.75;2.13;;;27.90;44.80;;;;;;5002713;28;20076;-68
2021/03/05 03:23:38;;;;;;;9.60;2.60;;;27.70;45.20;;;;;;5000648;28;20026;-68
2021/03/05 03:26:06;;;;;;;8.13;2.13;;;28.10;43.60;;;;;;5000163;28;20042;-69
2021/03/05 03:28:35;;;;;;;8.30;2.15;;;28.00;44.00;;;;;;4999837;28;20036;-68
2021/03/05 03:31:07;;;;;;;12.50;2.53;;;27.90;43.80;;;;;;5001604;28;20042;-72
2021/03/05 03:33:35;;;;;;;8.00;2.50;;;27.60;44.40;;;;;;5000264;28;20022;-72
2021/03/05 03:36:05;;;;;;;7.53;2.20;;;28.20;43.90;;;;;;5003092;28;20026;-68
2021/03/05 03:38:33;;;;;;;12.43;2.63;;;28.50;43.30;;;;;;5002080;28;20025;-70
2021/03/05 03:41:01;;;;;;;13.60;2.50;;;28.90;42.80;;;;;;5001280;28;20030;-70
2021/03/05 03:43:28;;;;;;;10.45;2.78;;;28.70;42.60;;;;;;4998754;28;20099;-72
2021/03/05 03:45:58;;;;;;;8.93;2.75;;;29.00;42.90;;;;;;5001765;28;20030;-69
2021/03/05 03:48:27;;;;;;;9.65;2.45;;;29.90;43.10;;;;;;5002791;28;20499;-68
2021/03/05 03:51:07;;;;;;;11.25;3.13;;;30.10;42.80;;;;;;5001248;28;20064;-67
2021/03/05 03:53:38;;;;;;;15.23;3.05;;;30.20;41.00;;;;;;4998650;28;20117;-67
2021/03/05 03:56:10;;;;;;;8.90;2.67;;;30.40;40.90;;;;;;5001771;28;20048;-70
2021/03/05 03:58:39;;;;;;;13.15;2.67;;;30.40;39.90;;;;;;5001712;28;20087;-74
2021/03/05 04:01:11;;;;;;;18.15;3.55;;;30.50;40.00;;;;;;5002700;28;20042;-66
2021/03/05 04:03:44;;;;;;;9.73;2.50;;;29.30;41.40;;;;;;4999454;28;20088;-68
2021/03/05 04:06:13;;;;;;;7.93;2.95;;;28.30;43.80;;;;;;5002471;28;21174;-69
2021/03/05 04:08:42;;;;;;;11.73;3.45;;;27.60;44.90;;;;;;5000979;28;20793;-68
2021/03/05 04:11:10;;;;;;;13.13;2.67;;;27.10;46.10;;;;;;4984570;28;19926;-73
2021/03/05 04:13:41;;;;;;;10.52;3.15;;;27.40;46.80;;;;;;4999650;28;20141;-67
2021/03/05 04:16:09;;;;;;;11.23;2.78;;;28.10;45.60;;;;;;5001487;28;20065;-70
2021/03/05 04:18:38;;;;;;;11.30;3.22;;;28.60;43.70;;;;;;5002096;28;20037;-70
2021/03/05 04:21:14;;;;;;;8.40;2.55;;;29.20;44.40;;;;;;5002108;28;20040;-69
2021/03/05 04:23:41;;;;;;;7.60;2.30;;;29.60;42.50;;;;;;4998293;28;20064;-68
2021/03/05 04:26:09;;;;;;;8.38;2.60;;;29.60;42.60;;;;;;5001871;28;20766;-71
2021/03/05 04:28:36;;;;;;;10.55;2.33;;;29.60;42.90;;;;;;5002146;28;20115;-70
2021/03/05 04:31:04;;;;;;;19.67;2.75;;;29.40;41.90;;;;;;5000030;28;20033;-68
2021/03/05 04:33:31;;;;;;;9.27;2.70;;;29.10;43.20;;;;;;5001744;28;20029;-69
2021/03/05 04:35:58;;;;;;;10.30;2.53;;;29.00;43.80;;;;;;5004851;28;20026;-69
2021/03/05 04:38:29;;;;;;;14.70;2.95;;;29.20;44.10;;;;;;5003780;28;20419;-68
2021/03/05 04:40:57;;;;;;;10.35;2.47;;;29.20;42.90;;;;;;5004481;28;20125;-67
2021/03/05 04:43:25;;;;;;;9.32;2.30;;;29.40;42.00;;;;;;5001631;28;20042;-72
2021/03/05 04:45:53;;;;;;;13.98;4.15;;;28.90;42.60;;;;;;5006099;28;20143;-68
2021/03/05 04:48:20;;;;;;;7.72;2.17;;;28.00;43.80;;;;;;5005078;28;20034;-68
2021/03/05 04:50:48;;;;;;;10.80;2.70;;;27.00;45.50;;;;;;5004270;28;20040;-68
2021/03/05 04:53:15;;;;;;;10.73;3.08;;;26.50;47.30;;;;;;5002258;28;20083;-73
2021/03/05 04:55:43;;;;;;;9.65;3.25;;;27.00;46.50;;;;;;5004551;28;20025;-70
2021/03/05 04:58:10;;;;;;;15.38;4.28;;;27.60;46.20;;;;;;5005891;28;20034;-69
2021/03/05 05:00:38;;;;;;;9.43;2.22;;;28.00;46.30;;;;;;5002710;28;20029;-69
2021/03/05 05:03:05;;;;;;;8.73;2.13;;;28.50;44.50;;;;;;5000842;28;20408;-67
2021/03/05 05:05:33;;;;;;;10.63;2.28;;;28.60;44.30;;;;;;5005305;28;20488;-71
2021/03/05 05:08:00;;;;;;;9.40;2.50;;;28.10;43.60;;;;;;5004118;28;20514;-67
2021/03/05 05:10:28;;;;;;;9.85;2.83;;;27.50;45.40;;;;;;5005175;28;20595;-68
2021/03/05 05:12:55;;;;;;;10.40;2.97;;;26.90;45.80;;;;;;5001675;28;20052;-69
2021/03/05 05:15:22;;;;;;;9.57;2.13;;;26.40;46.50;;;;;;5004133;28;20068;-68
2021/03/05 05:17:50;;;;;;;12.55;2.97;;;26.20;47.90;;;;;;5004366;28;20034;-72
2021/03/05 05:20:17;;;;;;;10.30;2.47;;;26.30;48.00;;;;;;5004557;28;20038;-68
2021/03/05 05:22:45;;;;;;;12.80;2.90;;;26.60;47.20;;;;;;5000546;28;20481;-66
2021/03/05 05:25:12;;;;;;;10.23;2.38;;;27.00;46.60;;;;;;5002814;28;20038;-67
2021/03/05 05:27:40;;;;;;;12.45;2.90;;;27.30;46.30;;;;;;5004599;28;20022;-67
2021/03/05 05:30:08;;;;;;;15.95;2.78;;;27.60;45.00;;;;;;5005198;28;20026;-70
2021/03/05 05:32:35;;;;;;;14.05;3.88;;;27.40;45.30;;;;;;5002901;28;20076;-67
2021/03/05 05:35:03;;;;;;;8.45;2.45;;;26.70;45.80;;;;;;5004570;28;20041;-71
2021/03/05 05:37:31;;;;;;;10.95;3.70;;;26.10;47.60;;;;;;5004206;28;20041;-68
2021/03/05 05:39:58;;;;;;;7.57;2.65;;;25.80;48.30;;;;;;5004009;28;20069;-67
2021/03/05 05:42:26;;;;;;;9.93;2.65;;;25.70;49.40;;;;;;5001081;28;20049;-68
2021/03/05 05:44:53;;;;;;;11.15;2.67;;;26.20;47.50;;;;;;5003950;28;20049;-68
2021/03/05 05:47:22;;;;;;;12.60;3.63;;;26.50;47.70;;;;;;5001356;28;20304;-69
2021/03/05 05:49:53;;;;;;;10.15;2.35;;;26.60;46.40;;;;;;5003956;28;20053;-69
2021/03/05 05:52:26;;;;;;;8.00;2.30;;;26.70;45.60;;;;;;4999166;28;20503;-68
2021/03/05 05:54:55;;;;;;;11.40;2.40;;;26.60;45.60;;;;;;5004853;28;20037;-67
2021/03/05 05:57:24;;;;;;;8.80;2.80;;;26.20;46.40;;;;;;5004767;28;20030;-68
2021/03/05 05:59:52;;;;;;;10.68;2.67;;;26.10;47.30;;;;;;5002329;28;20392;-68
2021/03/05 06:02:20;;;;;;;8.85;2.65;;;26.30;47.10;;;;;;5001459;28;20034;-69
2021/03/05 06:04:48;;;;;;;8.25;2.60;;;26.30;46.40;;;;;;5005482;28;20105;-67
2021/03/05 06:07:17;;;;;;;13.07;2.70;;;26.50;46.70;;;;;;5003487;28;20037;-71
2021/03/05 06:09:47;;;;;;;9.45;3.10;;;26.60;46.60;;;;;;5002896;28;20030;-68
2021/03/05 06:12:15;;;;;;;10.18;2.28;;;26.60;45.50;;;;;;5000887;28;20027;-68
2021/03/05 06:14:46;;;;;;;9.07;1.77;;;26.50;45.50;;;;;;5004453;28;20140;-70
2021/03/05 06:17:13;;;;;;;11.00;2.40;;;25.90;46.60;;;;;;5003534;28;20049;-71
2021/03/05 06:19:41;;;;;;;6.45;2.15;;;25.40;47.20;;;;;;5004079;28;20104;-69
2021/03/05 06:22:23;;;;;;;9.60;2.65;;;25.00;48.20;;;;;;4999790;28;20034;-69
2021/03/05 06:24:50;;;;;;;6.13;2.20;;;24.70;49.20;;;;;;5003409;28;20038;-68
2021/03/05 06:27:19;;;;;;;9.00;2.00;;;24.90;48.80;;;;;;5002244;28;20014;-69
2021/03/05 06:29:48;;;;;;;6.85;1.90;;;25.20;47.60;;;;;;5002707;28;20042;-67
2021/03/05 06:32:17;;;;;;;9.20;2.75;;;25.60;47.30;;;;;;5000153;28;20033;-66
2021/03/05 06:34:53;;;;;;;9.20;2.05;;;25.40;46.50;;;;;;5004031;28;20026;-67
2021/03/05 06:37:25;;;;;;;13.00;2.67;;;25.00;47.60;;;;;;5002152;28;20100;-70
2021/03/05 06:40:09;;;;;;;6.65;2.03;;;24.70;48.30;;;;;;5003329;28;20038;-69
2021/03/05 06:42:50;;;;;;;8.05;1.70;;;24.50;49.00;;;;;;5000148;28;20392;-73
2021/03/05 06:45:20;;;;;;;7.22;1.52;;;24.30;49.10;;;;;;5003430;28;20034;-71
2021/03/05 06:48:09;;;;;;;6.25;2.28;;;24.30;49.80;;;;;;5003366;28;20157;-69
2021/03/05 06:50:38;;;;;;;14.65;2.38;;;24.40;49.30;;;;;;5002534;28;20046;-69
2021/03/05 06:53:22;;;;;;;11.82;2.63;;;24.70;49.30;;;;;;5001104;28;20041;-69
2021/03/05 06:55:50;;;;;;;13.48;3.33;;;24.80;48.60;;;;;;5002590;28;20025;-67
2021/03/05 06:58:17;;;;;;;9.45;1.98;;;24.60;48.80;;;;;;5002177;28;20045;-68
2021/03/05 07:00:45;;;;;;;9.50;2.70;;;24.30;49.20;;;;;;5000683;28;20034;-66
2021/03/05 07:03:20;;;;;;;10.43;2.75;;;24.00;49.90;;;;;;5000141;28;20353;-68
2021/03/05 07:05:50;;;;;;;14.40;3.22;;;23.80;50.70;;;;;;5003200;28;20026;-68
2021/03/05 07:08:40;;;;;;;13.20;2.97;;;23.60;51.60;;;;;;5002544;28;20034;-73
2021/03/05 07:11:31;;;;;;;10.32;3.10;;;23.70;51.20;;;;;;5003131;28;20037;-67
2021/03/05 07:13:58;;;;;;;7.00;2.03;;;23.70;51.10;;;;;;4999855;28;20149;-69
2021/03/05 07:16:37;;;;;;;12.00;3.40;;;23.60;51.30;;;;;;5003055;28;20125;-67
2021/03/05 07:19:04;;;;;;;12.77;3.30;;;23.50;51.10;;;;;;5003248;28;20042;-68
2021/03/05 07:21:38;;;;;;;15.48;3.38;;;23.50;51.30;;;;;;5003478;28;20112;-69
2021/03/05 07:24:11;;;;;;;18.80;3.88;;;23.30;51.70;;;;;;5000258;28;20034;-68
2021/03/05 07:26:43;;;;;;;11.77;2.95;;;23.20;51.80;;;;;;5002546;28;20046;-70
2021/03/05 07:29:32;;;;;;;14.63;3.83;;;23.20;52.40;;;;;;5002589;28;20045;-70
2021/03/05 07:32:05;;;;;;;12.07;3.20;;;23.30;52.30;;;;;;5000508;28;20046;-69
2021/03/05 07:34:57;;;;;;;11.18;3.30;;;23.30;51.70;;;;;;5001239;28;20064;-69
2021/03/05 07:37:32;;;;;;;8.98;2.78;;;23.20;52.00;;;;;;4998865;28;20045;-69
2021/03/05 07:40:11;;;;;;;9.00;2.33;;;23.10;52.10;;;;;;5003123;28;20041;-68
2021/03/05 07:42:39;;;;;;;12.63;3.28;;;23.00;52.70;;;;;;4996752;28;20713;-68
2021/03/05 07:45:14;;;;;;;11.50;3.47;;;22.90;53.40;;;;;;5001741;28;20042;-69
2021/03/05 07:47:45;;;;;;;13.93;3.42;;;22.80;53.50;;;;;;5002633;28;20029;-69
2021/03/05 07:50:15;;;;;;;10.70;2.95;;;22.90;53.10;;;;;;4999051;28;20077;-68
2021/03/05 07:52:46;;;;;;;14.02;3.45;;;22.90;53.40;;;;;;4998763;28;20120;-68
2021/03/05 07:55:14;;;;;;;10.68;2.72;;;22.90;53.70;;;;;;5002148;28;20087;-67
2021/03/05 07:57:47;;;;;;;11.20;2.83;;;22.90;53.40;;;;;;5001417;28;20080;-68
2021/03/05 08:00:18;;;;;;;11.52;2.50;;;22.70;53.00;;;;;;5000474;28;20144;-69
2021/03/05 08:02:54;;;;;;;11.60;2.10;;;22.60;53.60;;;;;;4996161;28;20480;-68
2021/03/05 08:05:39;;;;;;;7.45;2.88;;;22.70;53.50;;;;;;5001331;28;20064;-69
2021/03/05 08:08:18;;;;;;;12.67;2.73;;;22.60;53.90;;;;;;5001475;28;20038;-70
2021/03/05 08:11:05;;;;;;;10.15;1.85;;;22.60;54.00;;;;;;5001680;28;20026;-75
2021/03/05 08:13:54;;;;;;;10.35;2.97;;;22.60;54.30;;;;;;4997197;28;20025;-74
2021/03/05 08:16:30;;;;;;;13.77;3.25;;;22.50;54.70;;;;;;5000301;28;20041;-72
2021/03/05 08:19:09;;;;;;;16.50;2.78;;;22.50;54.60;;;;;;5001879;28;20021;-71
2021/03/05 08:21:52;;;;;;;8.88;2.47;;;22.40;55.20;;;;;;5001689;28;20447;-68
2021/03/05 08:24:39;;;;;;;15.55;4.68;;;22.30;55.40;;;;;;4999160;28;20038;-69
2021/03/05 08:27:16;;;;;;;10.93;2.85;;;22.20;55.50;;;;;;5001461;28;20053;-67
2021/03/05 08:30:07;;;;;;;9.77;2.88;;;22.30;55.30;;;;;;5000620;28;20041;-68
2021/03/05 08:32:38;;;;;;;11.13;2.75;;;22.30;54.80;;;;;;5001806;28;20038;-68
2021/03/05 08:35:10;;;;;;;10.52;2.70;;;22.20;55.40;;;;;;5007656;28;20101;-67
2021/03/05 08:37:43;;;;;;;13.27;2.92;;;22.20;55.60;;;;;;5007153;28;20113;-67
2021/03/05 08:40:21;;;;;;;10.57;2.83;;;22.10;55.50;;;;;;5007565;28;20018;-69
2021/03/05 08:42:50;;;;;;;9.35;2.63;;;22.10;55.30;;;;;;5003970;28;20025;-69
2021/03/05 08:45:25;;;;;;;11.63;3.15;;;22.20;55.30;;;;;;5001081;28;20050;-67
2021/03/05 08:47:55;;;;;;;9.80;2.63;;;22.10;55.50;;;;;;5000821;28;20038;-67
2021/03/05 08:50:34;;;;;;;15.88;4.22;;;22.00;56.00;;;;;;4999791;28;20057;-73
2021/03/05 08:53:16;;;;;;;8.98;3.38;;;21.90;56.50;;;;;;4996865;28;20122;-69
2021/03/05 08:55:47;;;;;;;12.20;3.72;;;21.90;56.50;;;;;;5000704;28;20038;-69
2021/03/05 08:58:18;;;;;;;13.05;3.65;;;21.80;56.40;;;;;;4996144;28;20446;-68
2021/03/05 09:00:46;;;;;;;15.18;3.10;;;21.90;57.40;;;;;;4998358;28;20533;-68
2021/03/05 09:03:16;;;;;;;14.57;4.53;;;21.90;56.40;;;;;;4995625;28;20033;-70
2021/03/05 09:05:50;;;;;;;17.15;4.43;;;21.80;56.60;;;;;;5000109;28;20030;-68
2021/03/05 09:08:24;;;;;;;17.60;4.80;;;21.90;56.70;;;;;;4998653;28;20034;-69
2021/03/05 09:10:58;;;;;;;12.45;5.35;;;21.80;56.60;;;;;;4999516;28;20034;-70
2021/03/05 09:13:28;;;;;;;18.38;3.88;;;21.80;57.00;;;;;;4997306;28;20748;-69
2021/03/05 09:15:57;;;;;;;13.23;4.03;;;21.70;57.20;;;;;;4998617;28;20061;-69
2021/03/05 09:18:32;;;;;;;15.38;5.10;;;21.60;57.70;;;;;;5000765;28;20866;-68
2021/03/05 09:21:06;;;;;;;15.93;4.15;;;21.60;57.50;;;;;;5001862;28;20595;-69
2021/03/05 09:23:40;;;;;;;11.68;3.13;;;21.50;57.80;;;;;;5000487;28;20033;-67
2021/03/05 09:26:08;;;;;;;12.30;4.47;;;21.60;57.60;;;;;;5003519;28;20052;-69
2021/03/05 09:28:49;;;;;;;15.98;4.68;;;21.60;57.50;;;;;;5002393;28;20088;-68
2021/03/05 09:31:34;;;;;;;16.45;4.78;;;21.60;58.10;;;;;;5004351;28;20042;-72
2021/03/05 09:34:07;;;;;;;16.00;4.10;;;21.50;57.90;;;;;;5002443;28;20053;-67
2021/03/05 09:36:37;;;;;;;11.70;3.15;;;21.60;57.80;;;;;;5004736;28;20040;-69
2021/03/05 09:39:05;;;;;;;20.23;4.63;;;21.50;57.80;;;;;;5002155;28;20562;-70
2021/03/05 09:41:33;;;;;;;11.63;3.50;;;21.50;57.90;;;;;;5004927;28;20294;-69
2021/03/05 09:44:04;;;;;;;9.73;2.92;;;21.50;58.10;;;;;;5001508;28;20730;-70
2021/03/05 09:46:37;;;;;;;13.73;4.63;;;21.60;57.90;;;;;;5001208;28;20030;-69
2021/03/05 09:49:25;;;;;;;14.23;3.88;;;21.60;57.90;;;;;;5004564;28;20056;-67
2021/03/05 09:51:53;;;;;;;10.02;2.45;;;21.50;57.90;;;;;;5002137;28;20052;-70
2021/03/05 09:54:41;;;;;;;13.05;3.67;;;21.50;57.50;;;;;;5003192;28;20018;-69
2021/03/05 09:57:13;;;;;;;12.32;2.58;;;21.50;57.90;;;;;;5003604;28;20030;-68
2021/03/05 09:59:45;;;;;;;8.85;2.45;;;21.50;58.10;;;;;;5003048;28;20033;-68
2021/03/05 10:02:23;;;;;;;13.82;3.17;;;21.40;58.50;;;;;;5002069;28;20638;-68
2021/03/05 10:04:52;;;;;;;11.10;3.20;;;21.40;58.40;;;;;;5003191;28;20477;-68
2021/03/05 10:07:20;;;;;;;10.38;2.38;;;21.50;57.90;;;;;;5002571;28;20490;-69
2021/03/05 10:09:47;;;;;;;15.43;4.20;;;21.40;58.30;;;;;;5003567;28;20046;-69
2021/03/05 10:12:15;;;;;;;11.90;2.67;;;21.50;58.40;;;;;;5002820;28;21105;-69
2021/03/05 10:14:47;;;;;;;15.43;3.00;;;21.40;58.30;;;;;;5000673;28;20033;-67
2021/03/05 10:17:19;;;;;;;10.38;2.70;;;21.40;58.20;;;;;;5000892;28;20048;-67
2021/03/05 10:19:48;;;;;;;10.75;2.38;;;21.30;58.40;;;;;;5002237;28;20470;-70
2021/03/05 10:22:15;;;;;;;12.75;3.92;;;21.40;58.20;;;;;;5002314;28;20038;-69
2021/03/05 10:24:43;;;;;;;6.68;2.00;;;21.40;58.20;;;;;;5001031;28;20037;-68
2021/03/05 10:27:21;;;;;;;8.77;3.35;;;21.40;58.50;;;;;;5002588;28;20030;-68
2021/03/05 10:29:58;;;;;;;11.38;2.25;;;21.50;58.50;;;;;;5003231;28;20034;-68
2021/03/05 10:32:49;;;;;;;11.20;2.80;;;21.60;58.10;;;;;;5001771;28;20401;-68
2021/03/05 10:35:17;;;;;;;10.40;2.80;;;21.50;58.30;;;;;;5002793;28;20157;-67
2021/03/05 10:37:45;;;;;;;8.05;2.40;;;21.40;58.70;;;;;;5001669;28;20035;-68
2021/03/05 10:40:15;;;;;;;13.07;2.47;;;21.50;58.70;;;;;;4999180;28;20042;-72
2021/03/05 10:42:43;;;;;;;13.30;2.30;;;21.50;58.60;;;;;;5001228;28;20617;-69
2021/03/05 10:45:11;;;;;;;10.50;2.30;;;21.40;58.80;;;;;;5002161;28;20030;-67
2021/03/05 10:47:38;;;;;;;12.32;2.53;;;21.40;59.10;;;;;;5001741;28;20786;-68
2021/03/05 10:50:06;;;;;;;6.05;1.80;;;21.40;59.10;;;;;;5001862;28;20029;-67
2021/03/05 10:52:34;;;;;;;9.43;2.25;;;21.30;59.20;;;;;;5000748;28;20029;-68
2021/03/05 10:55:01;;;;;;;10.23;2.78;;;21.30;59.10;;;;;;5002162;28;20650;-69
2021/03/05 10:57:29;;;;;;;10.15;2.22;;;21.30;58.80;;;;;;5001940;28;20125;-66
2021/03/05 10:59:57;;;;;;;8.23;2.25;;;21.30;59.00;;;;;;5003381;28;21460;-68
2021/03/05 11:02:24;;;;;;;8.32;2.33;;;21.30;59.10;;;;;;5002151;28;20041;-67
2021/03/05 11:04:51;;;;;;;11.07;2.00;;;21.40;59.20;;;;;;5000913;28;20021;-67
2021/03/05 11:07:19;;;;;;;10.25;3.15;;;21.40;59.20;;;;;;5000766;28;20112;-68
2021/03/05 11:09:46;;;;;;;13.32;2.92;;;21.40;59.10;;;;;;4999589;28;20042;-67
2021/03/05 11:12:14;;;;;;;6.38;1.90;;;21.30;59.10;;;;;;5000671;28;20108;-67
2021/03/05 11:14:41;;;;;;;8.38;2.25;;;21.40;59.40;;;;;;5001996;28;20063;-67
2021/03/05 11:17:09;;;;;;;12.20;2.60;;;21.30;59.00;;;;;;5002541;28;20030;-70
2021/03/05 11:19:36;;;;;;;13.73;2.60;;;21.30;59.20;;;;;;5002189;28;20036;-68
2021/03/05 11:22:03;;;;;;;6.97;2.03;;;21.30;59.30;;;;;;5002498;28;20041;-68
2021/03/05 11:24:31;;;;;;;9.52;2.13;;;21.30;59.30;;;;;;5003390;28;20060;-68
2021/03/05 11:26:58;;;;;;;9.88;2.00;;;21.30;59.60;;;;;;5002393;28;20045;-69
2021/03/05 11:29:25;;;;;;;6.68;2.00;;;21.30;59.80;;;;;;5000605;28;20068;-68
2021/03/05 11:31:53;;;;;;;15.80;2.70;;;21.20;59.60;;;;;;5000916;28;20053;-68
2021/03/05 11:34:20;;;;;;;11.15;2.15;;;21.20;59.60;;;;;;5001310;28;20026;-69
2021/03/05 11:36:49;;;;;;;10.10;2.28;;;21.20;59.90;;;;;;5001279;28;20034;-68
2021/03/05 11:39:18;;;;;;;11.75;1.95;;;21.10;60.00;;;;;;4999025;28;20041;-68
2021/03/05 11:41:47;;;;;;;10.70;1.80;;;21.10;60.00;;;;;;4999655;28;21760;-68
2021/03/05 11:44:14;;;;;;;9.82;2.88;;;21.20;60.00;;;;;;5001140;28;20456;-69
2021/03/05 11:46:42;;;;;;;13.20;2.35;;;21.20;60.10;;;;;;5003005;28;20036;-69
2021/03/05 11:49:10;;;;;;;17.15;3.13;;;21.10;59.70;;;;;;5000413;28;20017;-66
2021/03/05 11:51:37;;;;;;;11.32;2.20;;;21.10;60.20;;;;;;5002006;28;20057;-68
2021/03/05 11:54:05;;;;;;;13.80;3.38;;;21.00;60.30;;;;;;4999507;28;20045;-69
2021/03/05 11:56:32;;;;;;;13.75;2.50;;;21.10;60.40;;;;;;5001330;28;20041;-70
2021/03/05 11:59:01;;;;;;;10.05;2.65;;;21.10;60.60;;;;;;4999341;28;21501;-68
2021/03/05 12:01:29;;;;;;;15.15;3.85;;;21.10;60.40;;;;;;4998095;28;20044;-71
2021/03/05 12:03:58;;;;;;;10.23;3.15;;;21.10;60.80;;;;;;4997775;28;20030;-71
2021/03/05 12:06:28;;;;;;;14.35;3.25;;;21.00;61.40;;;;;;4999658;28;20032;-68
2021/03/05 12:08:56;;;;;;;12.57;2.92;;;21.00;61.30;;;;;;5001705;28;20505;-66
2021/03/05 12:11:24;;;;;;;12.98;2.17;;;21.00;61.20;;;;;;5001522;28;20037;-69
2021/03/05 12:13:51;;;;;;;12.93;1.98;;;20.90;61.20;;;;;;4999240;28;20018;-68
2021/03/05 12:16:19;;;;;;;11.18;2.42;;;20.90;61.30;;;;;;5001056;28;20068;-67
2021/03/05 12:18:46;;;;;;;16.05;4.00;;;21.00;61.40;;;;;;5001503;28;20034;-72
2021/03/05 12:21:14;;;;;;;14.10;4.45;;;20.90;61.30;;;;;;4997691;28;20029;-67
2021/03/05 12:23:42;;;;;;;9.75;2.53;;;20.80;61.80;;;;;;4998326;28;20062;-69
2021/03/05 12:26:09;;;;;;;18.85;2.67;;;20.90;61.50;;;;;;5001062;28;20072;-68
2021/03/05 12:28:38;;;;;;;13.57;2.38;;;21.00;61.30;;;;;;5001038;28;20456;-70
2021/03/05 12:31:05;;;;;;;9.18;2.28;;;21.00;61.50;;;;;;5001695;28;20879;-70
2021/03/05 12:33:33;;;;;;;11.82;3.45;;;20.90;61.40;;;;;;4998758;28;20034;-70
2021/03/05 12:36:00;;;;;;;9.90;2.47;;;20.90;61.70;;;;;;5000738;28;20631;-68
2021/03/05 12:38:27;;;;;;;12.50;2.78;;;20.80;62.20;;;;;;5000558;28;20146;-69
2021/03/05 12:40:55;;;;;;;15.27;2.83;;;20.80;62.50;;;;;;4999358;28;20682;-68
2021/03/05 12:43:22;;;;;;;7.47;1.88;;;20.80;62.30;;;;;;4997206;28;20105;-69
2021/03/05 12:45:51;;;;;;;9.75;2.15;;;20.80;62.40;;;;;;5002111;28;20026;-72
2021/03/05 12:48:19;;;;;;;14.32;2.92;;;20.80;62.60;;;;;;5001208;28;20030;-68
2021/03/05 12:50:46;;;;;;;10.27;2.70;;;20.80;62.40;;;;;;5001368;28;20124;-67
2021/03/05 12:53:14;;;;;;;9.00;2.35;;;20.80;62.50;;;;;;4996805;28;20018;-69
2021/03/05 12:55:42;;;;;;;9.88;2.70;;;20.80;62.50;;;;;;5001976;28;20029;-68
2021/03/05 12:58:09;;;;;;;9.05;2.28;;;20.80;63.10;;;;;;5005018;28;20113;-69